sensor_id;sensor_type;location;lat;lon;timestamp;P1;durP1;ratioP1;P2;durP2;ratioP2
77287;SDS011;66345;42.694;23.346;2024-02-28T00:02:07;26.63;;;12.10;;
77287;SDS011;66345;42.694;23.346;2024-02-28T00:04:33;25.50;;;12.37;;
77287;SDS011;66345;42.694;23.346;2024-02-28T00:06:58;29.85;;;13.07;;
77287;SDS011;66345;42.694;23.346;2024-02-28T00:09:24;27.93;;;12.90;;
77287;SDS011;66345;42.694;23.346;2024-02-28T00:11:50;30.10;;;13.33;;
77287;SDS011;66345;42.694;23.346;2024-02-28T00:14:15;31.80;;;14.98;;
77287;SDS011;66345;42.694;23.346;2024-02-28T00:16:41;30.87;;;13.80;;
77287;SDS011;66345;42.694;23.346;2024-02-28T00:19:08;26.05;;;12.32;;
77287;SDS011;66345;42.694;23.346;2024-02-28T00:21:33;27.30;;;13.95;;
77287;SDS011;66345;42.694;23.346;2024-02-28T00:23:59;25.67;;;12.43;;
77287;SDS011;66345;42.694;23.346;2024-02-28T00:26:24;27.73;;;12.57;;
77287;SDS011;66345;42.694;23.346;2024-02-28T00:28:50;30.52;;;13.27;;
77287;SDS011;66345;42.694;23.346;2024-02-28T00:31:16;27.90;;;13.60;;
77287;SDS011;66345;42.694;23.346;2024-02-28T00:33:41;28.83;;;12.55;;
77287;SDS011;66345;42.694;23.346;2024-02-28T00:36:07;28.37;;;13.03;;
77287;SDS011;66345;42.694;23.346;2024-02-28T00:38:32;31.23;;;13.80;;
77287;SDS011;66345;42.694;23.346;2024-02-28T00:40:58;30.25;;;13.35;;
77287;SDS011;66345;42.694;23.346;2024-02-28T00:43:24;30.98;;;13.35;;
77287;SDS011;66345;42.694;23.346;2024-02-28T00:45:50;29.20;;;13.35;;
77287;SDS011;66345;42.694;23.346;2024-02-28T00:48:15;28.70;;;13.37;;
77287;SDS011;66345;42.694;23.346;2024-02-28T00:50:41;31.48;;;13.85;;
77287;SDS011;66345;42.694;23.346;2024-02-28T00:53:06;31.10;;;13.60;;
77287;SDS011;66345;42.694;23.346;2024-02-28T00:55:32;31.53;;;13.43;;
77287;SDS011;66345;42.694;23.346;2024-02-28T00:57:57;30.87;;;14.03;;
77287;SDS011;66345;42.694;23.346;2024-02-28T01:00:23;31.98;;;13.93;;
77287;SDS011;66345;42.694;23.346;2024-02-28T01:02:48;31.02;;;14.10;;
77287;SDS011;66345;42.694;23.346;2024-02-28T01:05:14;31.87;;;13.90;;
77287;SDS011;66345;42.694;23.346;2024-02-28T01:07:39;26.67;;;13.53;;
77287;SDS011;66345;42.694;23.346;2024-02-28T01:10:05;28.00;;;13.80;;
77287;SDS011;66345;42.694;23.346;2024-02-28T01:12:32;31.00;;;13.57;;
77287;SDS011;66345;42.694;23.346;2024-02-28T01:14:57;36.05;;;13.30;;
77287;SDS011;66345;42.694;23.346;2024-02-28T01:17:23;33.80;;;14.10;;
77287;SDS011;66345;42.694;23.346;2024-02-28T01:19:48;28.07;;;13.63;;
77287;SDS011;66345;42.694;23.346;2024-02-28T01:22:14;28.40;;;13.27;;
77287;SDS011;66345;42.694;23.346;2024-02-28T01:24:39;29.05;;;14.10;;
77287;SDS011;66345;42.694;23.346;2024-02-28T01:27:05;30.63;;;13.93;;
77287;SDS011;66345;42.694;23.346;2024-02-28T01:29:30;29.13;;;13.85;;
77287;SDS011;66345;42.694;23.346;2024-02-28T01:31:56;36.73;;;17.43;;
77287;SDS011;66345;42.694;23.346;2024-02-28T01:34:21;34.23;;;13.63;;
77287;SDS011;66345;42.694;23.346;2024-02-28T01:36:47;30.77;;;12.73;;
77287;SDS011;66345;42.694;23.346;2024-02-28T01:39:13;27.63;;;12.70;;
77287;SDS011;66345;42.694;23.346;2024-02-28T01:41:38;26.60;;;12.57;;
77287;SDS011;66345;42.694;23.346;2024-02-28T01:44:04;29.42;;;12.75;;
77287;SDS011;66345;42.694;23.346;2024-02-28T01:46:29;24.73;;;12.07;;
77287;SDS011;66345;42.694;23.346;2024-02-28T01:48:56;25.38;;;12.65;;
77287;SDS011;66345;42.694;23.346;2024-02-28T01:51:23;26.33;;;12.25;;
77287;SDS011;66345;42.694;23.346;2024-02-28T01:53:51;23.92;;;12.02;;
77287;SDS011;66345;42.694;23.346;2024-02-28T01:56:17;26.03;;;11.43;;
77287;SDS011;66345;42.694;23.346;2024-02-28T01:58:47;26.35;;;11.88;;
77287;SDS011;66345;42.694;23.346;2024-02-28T02:01:14;25.38;;;12.10;;
77287;SDS011;66345;42.694;23.346;2024-02-28T02:03:40;29.75;;;12.30;;
77287;SDS011;66345;42.694;23.346;2024-02-28T02:06:07;33.10;;;12.43;;
77287;SDS011;66345;42.694;23.346;2024-02-28T02:08:33;26.07;;;11.73;;
77287;SDS011;66345;42.694;23.346;2024-02-28T02:10:59;25.50;;;12.35;;
77287;SDS011;66345;42.694;23.346;2024-02-28T02:13:25;25.08;;;12.43;;
77287;SDS011;66345;42.694;23.346;2024-02-28T02:15:50;26.70;;;11.98;;
77287;SDS011;66345;42.694;23.346;2024-02-28T02:18:16;25.50;;;12.13;;
77287;SDS011;66345;42.694;23.346;2024-02-28T02:20:43;25.27;;;12.03;;
77287;SDS011;66345;42.694;23.346;2024-02-28T02:23:11;27.58;;;12.95;;
77287;SDS011;66345;42.694;23.346;2024-02-28T02:25:44;26.73;;;12.15;;
77287;SDS011;66345;42.694;23.346;2024-02-28T02:28:10;27.58;;;12.35;;
77287;SDS011;66345;42.694;23.346;2024-02-28T02:30:36;27.47;;;12.67;;
77287;SDS011;66345;42.694;23.346;2024-02-28T02:33:03;31.73;;;13.02;;
77287;SDS011;66345;42.694;23.346;2024-02-28T02:35:29;27.25;;;13.52;;
77287;SDS011;66345;42.694;23.346;2024-02-28T02:37:54;31.50;;;13.35;;
77287;SDS011;66345;42.694;23.346;2024-02-28T02:40:20;29.17;;;13.53;;
77287;SDS011;66345;42.694;23.346;2024-02-28T02:42:45;27.77;;;13.27;;
77287;SDS011;66345;42.694;23.346;2024-02-28T02:45:11;26.85;;;12.30;;
77287;SDS011;66345;42.694;23.346;2024-02-28T02:47:36;31.03;;;12.63;;
77287;SDS011;66345;42.694;23.346;2024-02-28T02:50:02;26.33;;;11.97;;
77287;SDS011;66345;42.694;23.346;2024-02-28T02:52:28;31.73;;;13.48;;
77287;SDS011;66345;42.694;23.346;2024-02-28T02:54:53;29.30;;;13.23;;
77287;SDS011;66345;42.694;23.346;2024-02-28T02:57:19;31.17;;;14.03;;
77287;SDS011;66345;42.694;23.346;2024-02-28T02:59:45;29.70;;;12.50;;
77287;SDS011;66345;42.694;23.346;2024-02-28T03:02:11;30.37;;;13.97;;
77287;SDS011;66345;42.694;23.346;2024-02-28T03:04:36;28.02;;;12.75;;
77287;SDS011;66345;42.694;23.346;2024-02-28T03:07:02;25.57;;;12.17;;
77287;SDS011;66345;42.694;23.346;2024-02-28T03:09:27;27.33;;;12.93;;
77287;SDS011;66345;42.694;23.346;2024-02-28T03:11:53;26.50;;;12.47;;
77287;SDS011;66345;42.694;23.346;2024-02-28T03:14:18;29.98;;;12.85;;
77287;SDS011;66345;42.694;23.346;2024-02-28T03:16:45;28.77;;;12.67;;
77287;SDS011;66345;42.694;23.346;2024-02-28T03:19:12;26.85;;;13.25;;
77287;SDS011;66345;42.694;23.346;2024-02-28T03:21:40;29.23;;;12.18;;
77287;SDS011;66345;42.694;23.346;2024-02-28T03:24:06;30.13;;;13.43;;
77287;SDS011;66345;42.694;23.346;2024-02-28T03:26:32;32.00;;;13.15;;
77287;SDS011;66345;42.694;23.346;2024-02-28T03:28:57;29.95;;;13.60;;
77287;SDS011;66345;42.694;23.346;2024-02-28T03:31:24;29.92;;;12.93;;
77287;SDS011;66345;42.694;23.346;2024-02-28T03:33:49;30.63;;;14.20;;
77287;SDS011;66345;42.694;23.346;2024-02-28T03:36:15;27.33;;;13.32;;
77287;SDS011;66345;42.694;23.346;2024-02-28T03:38:41;30.33;;;13.33;;
77287;SDS011;66345;42.694;23.346;2024-02-28T03:41:07;29.95;;;13.40;;
77287;SDS011;66345;42.694;23.346;2024-02-28T03:43:32;27.37;;;13.43;;
77287;SDS011;66345;42.694;23.346;2024-02-28T03:45:58;28.53;;;13.00;;
77287;SDS011;66345;42.694;23.346;2024-02-28T03:48:23;27.75;;;12.50;;
77287;SDS011;66345;42.694;23.346;2024-02-28T03:50:49;33.03;;;14.17;;
77287;SDS011;66345;42.694;23.346;2024-02-28T03:53:14;30.93;;;13.93;;
77287;SDS011;66345;42.694;23.346;2024-02-28T03:55:40;28.55;;;12.90;;
77287;SDS011;66345;42.694;23.346;2024-02-28T03:58:05;30.63;;;13.50;;
77287;SDS011;66345;42.694;23.346;2024-02-28T04:00:34;28.50;;;13.48;;
77287;SDS011;66345;42.694;23.346;2024-02-28T04:03:00;37.80;;;13.83;;
77287;SDS011;66345;42.694;23.346;2024-02-28T04:05:25;23.73;;;12.32;;
77287;SDS011;66345;42.694;23.346;2024-02-28T04:07:51;29.90;;;13.10;;
77287;SDS011;66345;42.694;23.346;2024-02-28T04:10:16;38.93;;;13.53;;
77287;SDS011;66345;42.694;23.346;2024-02-28T04:12:43;28.73;;;12.50;;
77287;SDS011;66345;42.694;23.346;2024-02-28T04:15:12;28.40;;;13.68;;
77287;SDS011;66345;42.694;23.346;2024-02-28T04:17:38;30.45;;;14.35;;
77287;SDS011;66345;42.694;23.346;2024-02-28T04:20:07;29.80;;;13.45;;
77287;SDS011;66345;42.694;23.346;2024-02-28T04:22:36;30.35;;;13.27;;
77287;SDS011;66345;42.694;23.346;2024-02-28T04:25:03;27.70;;;13.90;;
77287;SDS011;66345;42.694;23.346;2024-02-28T04:27:30;29.67;;;14.15;;
77287;SDS011;66345;42.694;23.346;2024-02-28T04:29:55;33.90;;;14.00;;
77287;SDS011;66345;42.694;23.346;2024-02-28T04:32:20;35.00;;;14.13;;
77287;SDS011;66345;42.694;23.346;2024-02-28T04:34:46;30.67;;;13.68;;
77287;SDS011;66345;42.694;23.346;2024-02-28T04:37:11;37.33;;;14.27;;
77287;SDS011;66345;42.694;23.346;2024-02-28T04:39:37;34.93;;;14.10;;
77287;SDS011;66345;42.694;23.346;2024-02-28T04:42:03;32.88;;;14.40;;
77287;SDS011;66345;42.694;23.346;2024-02-28T04:44:28;34.60;;;14.10;;
77287;SDS011;66345;42.694;23.346;2024-02-28T04:46:54;30.80;;;13.67;;
77287;SDS011;66345;42.694;23.346;2024-02-28T04:49:19;30.98;;;14.18;;
77287;SDS011;66345;42.694;23.346;2024-02-28T04:51:45;32.58;;;13.10;;
77287;SDS011;66345;42.694;23.346;2024-02-28T04:54:10;27.00;;;12.67;;
77287;SDS011;66345;42.694;23.346;2024-02-28T04:56:42;27.83;;;12.70;;
77287;SDS011;66345;42.694;23.346;2024-02-28T04:59:11;28.50;;;13.57;;
77287;SDS011;66345;42.694;23.346;2024-02-28T05:01:40;28.07;;;12.57;;
77287;SDS011;66345;42.694;23.346;2024-02-28T05:04:07;31.67;;;13.05;;
77287;SDS011;66345;42.694;23.346;2024-02-28T05:06:33;34.95;;;13.88;;
77287;SDS011;66345;42.694;23.346;2024-02-28T05:08:59;29.45;;;13.40;;
77287;SDS011;66345;42.694;23.346;2024-02-28T05:11:24;30.50;;;13.50;;
77287;SDS011;66345;42.694;23.346;2024-02-28T05:13:50;28.87;;;13.10;;
77287;SDS011;66345;42.694;23.346;2024-02-28T05:16:15;33.03;;;15.02;;
77287;SDS011;66345;42.694;23.346;2024-02-28T05:18:41;29.07;;;13.33;;
77287;SDS011;66345;42.694;23.346;2024-02-28T05:21:09;34.00;;;15.25;;
77287;SDS011;66345;42.694;23.346;2024-02-28T05:23:35;32.07;;;14.83;;
77287;SDS011;66345;42.694;23.346;2024-02-28T05:26:01;35.28;;;15.48;;
77287;SDS011;66345;42.694;23.346;2024-02-28T05:28:31;31.45;;;13.68;;
77287;SDS011;66345;42.694;23.346;2024-02-28T05:31:10;31.23;;;15.67;;
77287;SDS011;66345;42.694;23.346;2024-02-28T05:33:50;34.35;;;15.63;;
77287;SDS011;66345;42.694;23.346;2024-02-28T05:36:16;32.45;;;15.07;;
77287;SDS011;66345;42.694;23.346;2024-02-28T05:38:43;30.52;;;13.98;;
77287;SDS011;66345;42.694;23.346;2024-02-28T05:41:08;31.17;;;14.33;;
77287;SDS011;66345;42.694;23.346;2024-02-28T05:43:34;31.52;;;15.18;;
77287;SDS011;66345;42.694;23.346;2024-02-28T05:46:01;29.07;;;13.37;;
77287;SDS011;66345;42.694;23.346;2024-02-28T05:48:26;29.83;;;13.40;;
77287;SDS011;66345;42.694;23.346;2024-02-28T05:50:52;29.43;;;14.07;;
77287;SDS011;66345;42.694;23.346;2024-02-28T05:53:17;28.00;;;13.53;;
77287;SDS011;66345;42.694;23.346;2024-02-28T05:55:44;29.40;;;13.90;;
77287;SDS011;66345;42.694;23.346;2024-02-28T05:58:10;29.85;;;14.25;;
77287;SDS011;66345;42.694;23.346;2024-02-28T06:00:35;36.70;;;13.57;;
77287;SDS011;66345;42.694;23.346;2024-02-28T06:03:01;28.02;;;14.15;;
77287;SDS011;66345;42.694;23.346;2024-02-28T06:05:27;32.85;;;15.40;;
77287;SDS011;66345;42.694;23.346;2024-02-28T06:07:52;35.80;;;15.80;;
77287;SDS011;66345;42.694;23.346;2024-02-28T06:10:18;35.87;;;15.87;;
77287;SDS011;66345;42.694;23.346;2024-02-28T06:12:43;30.77;;;15.00;;
77287;SDS011;66345;42.694;23.346;2024-02-28T06:15:09;32.53;;;14.45;;
77287;SDS011;66345;42.694;23.346;2024-02-28T06:17:35;28.17;;;14.30;;
77287;SDS011;66345;42.694;23.346;2024-02-28T06:20:01;28.52;;;13.20;;
77287;SDS011;66345;42.694;23.346;2024-02-28T06:22:26;32.50;;;13.63;;
77287;SDS011;66345;42.694;23.346;2024-02-28T06:24:52;29.23;;;14.33;;
77287;SDS011;66345;42.694;23.346;2024-02-28T06:27:17;26.00;;;13.10;;
77287;SDS011;66345;42.694;23.346;2024-02-28T06:29:43;30.93;;;12.77;;
77287;SDS011;66345;42.694;23.346;2024-02-28T06:32:08;26.83;;;13.33;;
77287;SDS011;66345;42.694;23.346;2024-02-28T06:34:34;24.88;;;12.25;;
77287;SDS011;66345;42.694;23.346;2024-02-28T06:36:59;27.27;;;12.98;;
77287;SDS011;66345;42.694;23.346;2024-02-28T06:39:25;28.23;;;12.80;;
77287;SDS011;66345;42.694;23.346;2024-02-28T06:41:50;25.07;;;14.60;;
77287;SDS011;66345;42.694;23.346;2024-02-28T06:44:19;27.52;;;13.43;;
77287;SDS011;66345;42.694;23.346;2024-02-28T06:46:45;23.10;;;12.18;;
77287;SDS011;66345;42.694;23.346;2024-02-28T06:49:11;33.20;;;16.27;;
77287;SDS011;66345;42.694;23.346;2024-02-28T06:51:36;28.63;;;13.83;;
77287;SDS011;66345;42.694;23.346;2024-02-28T06:54:02;23.30;;;12.02;;
77287;SDS011;66345;42.694;23.346;2024-02-28T06:56:28;23.05;;;12.60;;
77287;SDS011;66345;42.694;23.346;2024-02-28T06:58:55;22.63;;;12.55;;
77287;SDS011;66345;42.694;23.346;2024-02-28T07:01:20;22.90;;;12.57;;
77287;SDS011;66345;42.694;23.346;2024-02-28T07:03:46;23.20;;;12.20;;
77287;SDS011;66345;42.694;23.346;2024-02-28T07:06:11;23.73;;;13.25;;
77287;SDS011;66345;42.694;23.346;2024-02-28T07:08:37;25.90;;;14.03;;
77287;SDS011;66345;42.694;23.346;2024-02-28T07:11:03;24.50;;;12.70;;
77287;SDS011;66345;42.694;23.346;2024-02-28T07:13:28;24.60;;;13.98;;
77287;SDS011;66345;42.694;23.346;2024-02-28T07:15:54;24.40;;;13.43;;
77287;SDS011;66345;42.694;23.346;2024-02-28T07:18:22;23.33;;;12.75;;
77287;SDS011;66345;42.694;23.346;2024-02-28T07:20:50;25.23;;;12.43;;
77287;SDS011;66345;42.694;23.346;2024-02-28T07:23:17;23.10;;;12.43;;
77287;SDS011;66345;42.694;23.346;2024-02-28T07:25:42;24.95;;;13.35;;
77287;SDS011;66345;42.694;23.346;2024-02-28T07:28:08;19.97;;;12.10;;
77287;SDS011;66345;42.694;23.346;2024-02-28T07:30:34;24.35;;;13.18;;
77287;SDS011;66345;42.694;23.346;2024-02-28T07:32:59;24.17;;;13.50;;
77287;SDS011;66345;42.694;23.346;2024-02-28T07:35:25;25.90;;;13.87;;
77287;SDS011;66345;42.694;23.346;2024-02-28T07:37:50;26.88;;;13.68;;
77287;SDS011;66345;42.694;23.346;2024-02-28T07:40:16;23.63;;;13.40;;
77287;SDS011;66345;42.694;23.346;2024-02-28T07:42:42;22.02;;;13.63;;
77287;SDS011;66345;42.694;23.346;2024-02-28T07:45:07;23.93;;;13.37;;
77287;SDS011;66345;42.694;23.346;2024-02-28T07:47:34;23.67;;;13.45;;
77287;SDS011;66345;42.694;23.346;2024-02-28T07:49:59;24.27;;;13.73;;
77287;SDS011;66345;42.694;23.346;2024-02-28T07:52:25;22.77;;;13.65;;
77287;SDS011;66345;42.694;23.346;2024-02-28T07:54:51;24.90;;;13.60;;
77287;SDS011;66345;42.694;23.346;2024-02-28T07:57:17;22.50;;;14.18;;
77287;SDS011;66345;42.694;23.346;2024-02-28T07:59:42;24.25;;;15.25;;
77287;SDS011;66345;42.694;23.346;2024-02-28T08:02:08;23.40;;;14.65;;
77287;SDS011;66345;42.694;23.346;2024-02-28T08:04:35;22.65;;;14.07;;
77287;SDS011;66345;42.694;23.346;2024-02-28T08:07:00;23.70;;;14.43;;
77287;SDS011;66345;42.694;23.346;2024-02-28T08:09:26;23.20;;;14.80;;
77287;SDS011;66345;42.694;23.346;2024-02-28T08:11:51;22.35;;;14.57;;
77287;SDS011;66345;42.694;23.346;2024-02-28T08:14:17;24.70;;;15.30;;
77287;SDS011;66345;42.694;23.346;2024-02-28T08:16:42;21.00;;;14.23;;
77287;SDS011;66345;42.694;23.346;2024-02-28T08:19:08;22.30;;;14.87;;
77287;SDS011;66345;42.694;23.346;2024-02-28T08:21:34;23.70;;;15.20;;
77287;SDS011;66345;42.694;23.346;2024-02-28T08:23:59;22.10;;;14.55;;
77287;SDS011;66345;42.694;23.346;2024-02-28T08:26:27;22.40;;;14.37;;
77287;SDS011;66345;42.694;23.346;2024-02-28T08:28:53;23.73;;;14.60;;
77287;SDS011;66345;42.694;23.346;2024-02-28T08:31:18;21.73;;;13.90;;
77287;SDS011;66345;42.694;23.346;2024-02-28T08:33:44;21.48;;;14.07;;
77287;SDS011;66345;42.694;23.346;2024-02-28T08:36:09;25.73;;;15.50;;
77287;SDS011;66345;42.694;23.346;2024-02-28T08:38:35;23.23;;;15.33;;
77287;SDS011;66345;42.694;23.346;2024-02-28T08:41:03;24.42;;;14.63;;
77287;SDS011;66345;42.694;23.346;2024-02-28T08:43:29;26.33;;;15.73;;
77287;SDS011;66345;42.694;23.346;2024-02-28T08:45:55;23.15;;;13.57;;
77287;SDS011;66345;42.694;23.346;2024-02-28T08:48:21;25.53;;;12.90;;
77287;SDS011;66345;42.694;23.346;2024-02-28T08:50:47;23.98;;;11.95;;
77287;SDS011;66345;42.694;23.346;2024-02-28T08:53:13;20.17;;;12.10;;
77287;SDS011;66345;42.694;23.346;2024-02-28T08:55:39;19.20;;;10.33;;
77287;SDS011;66345;42.694;23.346;2024-02-28T08:58:04;17.77;;;10.17;;
77287;SDS011;66345;42.694;23.346;2024-02-28T09:00:30;17.03;;;10.40;;
77287;SDS011;66345;42.694;23.346;2024-02-28T09:02:55;18.98;;;10.48;;
77287;SDS011;66345;42.694;23.346;2024-02-28T09:05:22;18.20;;;11.57;;
77287;SDS011;66345;42.694;23.346;2024-02-28T09:07:48;25.20;;;12.03;;
77287;SDS011;66345;42.694;23.346;2024-02-28T09:10:16;19.63;;;11.35;;
77287;SDS011;66345;42.694;23.346;2024-02-28T09:12:46;20.15;;;11.75;;
77287;SDS011;66345;42.694;23.346;2024-02-28T09:15:12;21.50;;;11.95;;
77287;SDS011;66345;42.694;23.346;2024-02-28T09:17:38;19.83;;;10.97;;
77287;SDS011;66345;42.694;23.346;2024-02-28T09:20:03;17.73;;;10.70;;
77287;SDS011;66345;42.694;23.346;2024-02-28T09:22:31;19.05;;;11.60;;
77287;SDS011;66345;42.694;23.346;2024-02-28T09:24:57;18.45;;;10.40;;
77287;SDS011;66345;42.694;23.346;2024-02-28T09:27:22;17.97;;;11.07;;
77287;SDS011;66345;42.694;23.346;2024-02-28T09:29:49;20.60;;;11.07;;
77287;SDS011;66345;42.694;23.346;2024-02-28T09:32:15;17.93;;;10.90;;
77287;SDS011;66345;42.694;23.346;2024-02-28T09:34:40;18.40;;;11.43;;
77287;SDS011;66345;42.694;23.346;2024-02-28T09:37:06;19.53;;;11.53;;
77287;SDS011;66345;42.694;23.346;2024-02-28T09:39:31;17.17;;;9.90;;
77287;SDS011;66345;42.694;23.346;2024-02-28T09:41:57;16.30;;;9.77;;
77287;SDS011;66345;42.694;23.346;2024-02-28T09:44:23;17.27;;;10.20;;
77287;SDS011;66345;42.694;23.346;2024-02-28T09:46:52;17.95;;;10.02;;
77287;SDS011;66345;42.694;23.346;2024-02-28T09:49:18;16.90;;;11.25;;
77287;SDS011;66345;42.694;23.346;2024-02-28T09:51:43;17.27;;;11.30;;
77287;SDS011;66345;42.694;23.346;2024-02-28T09:54:14;19.50;;;11.13;;
77287;SDS011;66345;42.694;23.346;2024-02-28T09:56:40;17.43;;;10.77;;
77287;SDS011;66345;42.694;23.346;2024-02-28T09:59:05;15.83;;;10.70;;
77287;SDS011;66345;42.694;23.346;2024-02-28T10:01:31;19.38;;;10.98;;
77287;SDS011;66345;42.694;23.346;2024-02-28T10:04:02;18.53;;;9.90;;
77287;SDS011;66345;42.694;23.346;2024-02-28T10:06:28;18.15;;;9.38;;
77287;SDS011;66345;42.694;23.346;2024-02-28T10:08:53;16.50;;;9.50;;
77287;SDS011;66345;42.694;23.346;2024-02-28T10:11:19;15.98;;;9.60;;
77287;SDS011;66345;42.694;23.346;2024-02-28T10:13:46;14.82;;;8.45;;
77287;SDS011;66345;42.694;23.346;2024-02-28T10:16:12;17.08;;;8.80;;
77287;SDS011;66345;42.694;23.346;2024-02-28T10:18:41;17.23;;;8.27;;
77287;SDS011;66345;42.694;23.346;2024-02-28T10:21:10;14.93;;;8.27;;
77287;SDS011;66345;42.694;23.346;2024-02-28T10:23:43;13.60;;;7.53;;
77287;SDS011;66345;42.694;23.346;2024-02-28T10:26:10;14.35;;;7.10;;
77287;SDS011;66345;42.694;23.346;2024-02-28T10:28:40;14.27;;;6.80;;
77287;SDS011;66345;42.694;23.346;2024-02-28T10:31:06;14.52;;;7.70;;
77287;SDS011;66345;42.694;23.346;2024-02-28T10:33:32;13.77;;;6.85;;
77287;SDS011;66345;42.694;23.346;2024-02-28T10:35:58;14.02;;;7.32;;
77287;SDS011;66345;42.694;23.346;2024-02-28T10:38:31;16.90;;;8.32;;
77287;SDS011;66345;42.694;23.346;2024-02-28T10:41:01;17.58;;;8.15;;
77287;SDS011;66345;42.694;23.346;2024-02-28T10:43:28;15.80;;;7.68;;
77287;SDS011;66345;42.694;23.346;2024-02-28T10:45:57;15.60;;;8.77;;
77287;SDS011;66345;42.694;23.346;2024-02-28T10:48:24;18.13;;;8.20;;
77287;SDS011;66345;42.694;23.346;2024-02-28T10:50:50;21.30;;;11.80;;
77287;SDS011;66345;42.694;23.346;2024-02-28T10:53:20;23.03;;;14.00;;
77287;SDS011;66345;42.694;23.346;2024-02-28T10:55:49;19.98;;;11.10;;
77287;SDS011;66345;42.694;23.346;2024-02-28T10:58:16;16.80;;;9.77;;
77287;SDS011;66345;42.694;23.346;2024-02-28T11:00:44;11.48;;;7.25;;
77287;SDS011;66345;42.694;23.346;2024-02-28T11:03:11;12.25;;;7.32;;
77287;SDS011;66345;42.694;23.346;2024-02-28T11:05:41;13.60;;;7.20;;
77287;SDS011;66345;42.694;23.346;2024-02-28T11:08:23;15.45;;;8.13;;
77287;SDS011;66345;42.694;23.346;2024-02-28T11:13:22;10.88;;;7.00;;
77287;SDS011;66345;42.694;23.346;2024-02-28T11:15:49;16.13;;;7.70;;
77287;SDS011;66345;42.694;23.346;2024-02-28T11:18:15;13.48;;;7.07;;
77287;SDS011;66345;42.694;23.346;2024-02-28T11:20:40;12.23;;;7.10;;
77287;SDS011;66345;42.694;23.346;2024-02-28T11:23:07;12.68;;;7.40;;
77287;SDS011;66345;42.694;23.346;2024-02-28T11:25:34;14.65;;;7.40;;
77287;SDS011;66345;42.694;23.346;2024-02-28T11:28:00;14.98;;;7.55;;
77287;SDS011;66345;42.694;23.346;2024-02-28T11:30:26;15.63;;;6.90;;
77287;SDS011;66345;42.694;23.346;2024-02-28T11:32:52;13.45;;;6.72;;
77287;SDS011;66345;42.694;23.346;2024-02-28T11:35:18;11.30;;;5.63;;
77287;SDS011;66345;42.694;23.346;2024-02-28T11:37:45;10.20;;;5.28;;
77287;SDS011;66345;42.694;23.346;2024-02-28T11:40:12;10.88;;;4.95;;
77287;SDS011;66345;42.694;23.346;2024-02-28T11:42:45;12.32;;;5.28;;
77287;SDS011;66345;42.694;23.346;2024-02-28T11:45:14;14.85;;;6.50;;
77287;SDS011;66345;42.694;23.346;2024-02-28T11:47:39;17.48;;;6.95;;
77287;SDS011;66345;42.694;23.346;2024-02-28T11:50:05;15.57;;;6.67;;
77287;SDS011;66345;42.694;23.346;2024-02-28T11:52:32;12.13;;;6.43;;
77287;SDS011;66345;42.694;23.346;2024-02-28T11:54:58;12.82;;;5.80;;
77287;SDS011;66345;42.694;23.346;2024-02-28T11:57:24;12.17;;;6.00;;
77287;SDS011;66345;42.694;23.346;2024-02-28T11:59:50;11.15;;;5.35;;
77287;SDS011;66345;42.694;23.346;2024-02-28T12:02:17;9.65;;;4.45;;
77287;SDS011;66345;42.694;23.346;2024-02-28T12:04:43;10.38;;;4.68;;
77287;SDS011;66345;42.694;23.346;2024-02-28T12:07:09;15.47;;;5.30;;
77287;SDS011;66345;42.694;23.346;2024-02-28T12:09:35;10.68;;;5.30;;
77287;SDS011;66345;42.694;23.346;2024-02-28T12:12:01;13.43;;;5.45;;
77287;SDS011;66345;42.694;23.346;2024-02-28T12:14:31;11.55;;;5.38;;
77287;SDS011;66345;42.694;23.346;2024-02-28T12:16:57;12.35;;;5.32;;
77287;SDS011;66345;42.694;23.346;2024-02-28T12:19:23;16.20;;;5.70;;
77287;SDS011;66345;42.694;23.346;2024-02-28T12:21:49;11.43;;;5.20;;
77287;SDS011;66345;42.694;23.346;2024-02-28T12:24:15;14.47;;;5.63;;
77287;SDS011;66345;42.694;23.346;2024-02-28T12:26:41;13.75;;;5.90;;
77287;SDS011;66345;42.694;23.346;2024-02-28T12:29:07;12.07;;;5.20;;
77287;SDS011;66345;42.694;23.346;2024-02-28T12:31:35;14.52;;;5.57;;
77287;SDS011;66345;42.694;23.346;2024-02-28T12:34:01;10.60;;;5.85;;
77287;SDS011;66345;42.694;23.346;2024-02-28T12:36:29;11.70;;;5.38;;
77287;SDS011;66345;42.694;23.346;2024-02-28T12:38:56;10.75;;;4.85;;
77287;SDS011;66345;42.694;23.346;2024-02-28T12:41:22;11.60;;;5.40;;
77287;SDS011;66345;42.694;23.346;2024-02-28T12:43:48;15.30;;;6.47;;
77287;SDS011;66345;42.694;23.346;2024-02-28T12:46:15;8.85;;;5.05;;
77287;SDS011;66345;42.694;23.346;2024-02-28T12:48:41;13.48;;;5.43;;
77287;SDS011;66345;42.694;23.346;2024-02-28T12:51:06;12.67;;;5.10;;
77287;SDS011;66345;42.694;23.346;2024-02-28T12:53:35;11.93;;;5.30;;
77287;SDS011;66345;42.694;23.346;2024-02-28T12:56:01;12.37;;;5.50;;
77287;SDS011;66345;42.694;23.346;2024-02-28T12:58:26;11.65;;;5.20;;
77287;SDS011;66345;42.694;23.346;2024-02-28T13:00:52;11.20;;;5.53;;
77287;SDS011;66345;42.694;23.346;2024-02-28T13:03:18;11.07;;;5.37;;
77287;SDS011;66345;42.694;23.346;2024-02-28T13:05:43;15.07;;;8.43;;
77287;SDS011;66345;42.694;23.346;2024-02-28T13:08:10;10.30;;;5.07;;
77287;SDS011;66345;42.694;23.346;2024-02-28T13:10:36;14.80;;;4.90;;
77287;SDS011;66345;42.694;23.346;2024-02-28T13:16:25;10.48;;;4.55;;
77287;SDS011;66345;42.694;23.346;2024-02-28T13:19:23;10.30;;;4.47;;
77287;SDS011;66345;42.694;23.346;2024-02-28T13:22:32;10.15;;;4.78;;
77287;SDS011;66345;42.694;23.346;2024-02-28T13:28:33;11.25;;;4.95;;
77287;SDS011;66345;42.694;23.346;2024-02-28T13:34:49;8.95;;;4.07;;
77287;SDS011;66345;42.694;23.346;2024-02-28T13:40:18;9.40;;;3.72;;
77287;SDS011;66345;42.694;23.346;2024-02-28T13:42:43;8.30;;;3.80;;
77287;SDS011;66345;42.694;23.346;2024-02-28T13:45:10;10.07;;;4.63;;
77287;SDS011;66345;42.694;23.346;2024-02-28T13:47:36;9.00;;;4.10;;
77287;SDS011;66345;42.694;23.346;2024-02-28T13:50:02;7.55;;;3.75;;
77287;SDS011;66345;42.694;23.346;2024-02-28T13:52:28;9.93;;;4.00;;
77287;SDS011;66345;42.694;23.346;2024-02-28T13:54:54;10.05;;;4.18;;
77287;SDS011;66345;42.694;23.346;2024-02-28T13:57:19;9.17;;;3.73;;
77287;SDS011;66345;42.694;23.346;2024-02-28T13:59:45;8.95;;;4.10;;
77287;SDS011;66345;42.694;23.346;2024-02-28T14:02:14;9.60;;;3.80;;
77287;SDS011;66345;42.694;23.346;2024-02-28T14:04:40;9.80;;;4.25;;
77287;SDS011;66345;42.694;23.346;2024-02-28T14:07:08;8.50;;;4.00;;
77287;SDS011;66345;42.694;23.346;2024-02-28T14:09:35;9.60;;;4.15;;
77287;SDS011;66345;42.694;23.346;2024-02-28T14:12:00;12.32;;;3.60;;
77287;SDS011;66345;42.694;23.346;2024-02-28T14:14:26;7.87;;;3.50;;
77287;SDS011;66345;42.694;23.346;2024-02-28T14:16:52;10.63;;;4.03;;
77287;SDS011;66345;42.694;23.346;2024-02-28T14:19:17;13.77;;;6.90;;
77287;SDS011;66345;42.694;23.346;2024-02-28T14:21:43;7.43;;;5.23;;
77287;SDS011;66345;42.694;23.346;2024-02-28T14:24:09;15.05;;;7.65;;
77287;SDS011;66345;42.694;23.346;2024-02-28T14:26:34;12.03;;;6.80;;